Newry, Maine
Current Conditions -  °F | °C
As of 2:52 AM on Tuesday 27 Jan 2015 (Local Time) from KBML Reporting Station
Overcast Overcast  
Wind Chill: -2°   Ceiling: 7500
Heat Index: 11°   Visibility: 10mi
Dew Point: -8°   Wind: 9mph
Humidity: 42%   Direction: 340°NNW
Pressure: 29.9"   Gusts: NA
Location:  44.49°N, 70.79°W
Report Text: KBML 270752Z AUTO 34008KT 10SM OVC075 M12/M22 A2990 RMK AO2 SLP148 T11171222
Loading
Personal Weather Stations






























Interactive Weather Map New forecast layout! Learn more

10-Day Weather Forecast

Advertisements
Track Severe Weather on mobile